createdAt,value
2018-11-06T00:00:55.029Z,12.77
2018-11-06T00:01:55.020Z,12.79
2018-11-06T00:02:55.016Z,12.85
2018-11-06T00:03:55.009Z,12.84
2018-11-06T00:04:54.996Z,12.77
2018-11-06T00:05:54.989Z,12.74
2018-11-06T00:06:54.981Z,12.76
2018-11-06T00:07:54.975Z,12.74
2018-11-06T00:08:54.972Z,12.77
2018-11-06T00:09:54.965Z,12.69
2018-11-06T00:10:54.958Z,12.74
2018-11-06T00:11:54.954Z,12.70
2018-11-06T00:12:54.939Z,12.70
2018-11-06T00:13:54.930Z,12.69
2018-11-06T00:14:54.923Z,12.66
2018-11-06T00:15:54.914Z,12.66
2018-11-06T00:16:54.911Z,12.66
2018-11-06T00:17:54.905Z,12.73
2018-11-06T00:18:54.893Z,12.67
2018-11-06T00:19:54.885Z,12.76
2018-11-06T00:20:54.881Z,12.71
2018-11-06T00:21:54.875Z,12.62
2018-11-06T00:22:54.870Z,12.67
2018-11-06T00:23:54.860Z,12.59
2018-11-06T00:24:54.848Z,12.61
2018-11-06T00:25:54.841Z,12.58
2018-11-06T00:26:54.834Z,12.59
2018-11-06T00:27:54.827Z,12.51
2018-11-06T00:28:54.824Z,12.62
2018-11-06T00:29:54.816Z,12.62
2018-11-06T00:30:54.808Z,12.55
2018-11-06T00:31:54.801Z,12.59
2018-11-06T00:32:54.788Z,12.58
2018-11-06T00:33:54.787Z,12.56
2018-11-06T00:34:54.778Z,12.61
2018-11-06T00:35:54.770Z,12.56
2018-11-06T00:36:54.758Z,12.61
2018-11-06T00:37:54.751Z,12.54
2018-11-06T00:38:54.744Z,12.61
2018-11-06T00:39:54.737Z,12.58
2018-11-06T00:40:54.734Z,12.58
2018-11-06T00:41:54.727Z,12.63
2018-11-06T00:42:54.718Z,12.73
2018-11-06T00:43:54.712Z,12.62
2018-11-06T00:44:54.698Z,12.74
2018-11-06T00:45:54.690Z,12.62
2018-11-06T00:46:54.724Z,12.71
2018-11-06T00:47:54.677Z,12.62
2018-11-06T00:48:54.675Z,12.62
2018-11-06T00:49:54.665Z,12.59
2018-11-06T00:50:54.655Z,12.61
2018-11-06T00:51:54.647Z,12.55
2018-11-06T00:52:54.642Z,12.59
2018-11-06T00:53:54.636Z,12.58
2018-11-06T00:54:54.629Z,12.49
2018-11-06T00:55:54.627Z,12.61
2018-11-06T00:56:54.608Z,12.54
2018-11-06T00:57:54.601Z,12.48
2018-11-06T00:58:54.593Z,12.43
2018-11-06T00:59:54.588Z,12.48
2018-11-06T01:00:54.584Z,12.37
2018-11-06T01:01:54.576Z,12.40
2018-11-06T01:02:54.568Z,12.30
2018-11-06T01:03:54.561Z,12.34
2018-11-06T01:04:54.547Z,12.37
2018-11-06T01:05:54.542Z,12.31
2018-11-06T01:06:54.543Z,12.26
2018-11-06T01:07:54.558Z,12.23
2018-11-06T01:08:54.521Z,12.26
2018-11-06T01:09:54.512Z,12.23
2018-11-06T01:10:54.504Z,12.19
2018-11-06T01:11:54.496Z,12.23
2018-11-06T01:12:54.494Z,12.30
2018-11-06T01:13:54.487Z,12.30
2018-11-06T01:14:54.479Z,12.31
2018-11-06T01:15:54.473Z,12.36
2018-11-06T01:16:54.501Z,12.30
2018-11-06T01:17:54.450Z,12.30
2018-11-06T01:18:54.446Z,12.44
2018-11-06T01:19:54.436Z,12.37
2018-11-06T01:20:54.433Z,12.40
2018-11-06T01:21:54.433Z,12.44
2018-11-06T01:22:54.417Z,12.43
2018-11-06T01:23:54.412Z,12.49
2018-11-06T01:24:54.401Z,12.52
2018-11-06T01:25:54.394Z,12.51
2018-11-06T01:26:54.393Z,12.52
2018-11-06T01:27:54.381Z,12.41
2018-11-06T01:28:54.370Z,12.44
2018-11-06T01:29:54.360Z,12.49
2018-11-06T01:30:54.354Z,12.44
2018-11-06T01:31:54.349Z,12.43
2018-11-06T01:32:54.347Z,12.38
2018-11-06T01:33:54.336Z,12.43
2018-11-06T01:34:54.327Z,12.48
2018-11-06T01:35:54.321Z,12.51
2018-11-06T01:36:54.308Z,12.44
2018-11-06T01:37:54.301Z,12.49
2018-11-06T01:38:54.298Z,12.41
2018-11-06T01:39:54.291Z,12.43
2018-11-06T01:40:54.277Z,12.37
2018-11-06T01:41:54.269Z,12.41
2018-11-06T01:42:54.262Z,12.31
2018-11-06T01:43:54.257Z,12.38
2018-11-06T01:44:54.252Z,12.41
2018-11-06T01:45:54.245Z,12.44
2018-11-06T01:46:54.240Z,12.41
2018-11-06T01:47:54.229Z,12.44
2018-11-06T01:48:54.217Z,12.43
2018-11-06T01:49:54.209Z,12.54
2018-11-06T01:50:54.205Z,12.52
2018-11-06T01:51:54.195Z,12.54
2018-11-06T01:52:54.192Z,12.44
2018-11-06T01:53:54.185Z,12.54
2018-11-06T01:54:54.172Z,12.52
2018-11-06T01:55:54.169Z,12.61
2018-11-06T01:56:54.162Z,12.71
2018-11-06T01:57:54.154Z,12.74
2018-11-06T01:58:54.146Z,12.67
2018-11-06T01:59:54.148Z,12.70
2018-11-06T02:00:54.126Z,12.59
2018-11-06T02:01:54.119Z,12.69
2018-11-06T02:02:54.111Z,12.58
2018-11-06T02:03:54.103Z,12.59
2018-11-06T02:04:54.099Z,12.58
2018-11-06T02:05:54.092Z,12.58
2018-11-06T02:06:54.089Z,12.54
2018-11-06T02:07:54.079Z,12.59
2018-11-06T02:08:54.066Z,12.63
2018-11-06T02:09:54.058Z,12.77
2018-11-06T02:10:54.056Z,12.66
2018-11-06T02:11:54.048Z,12.71
2018-11-06T02:12:54.036Z,12.69
2018-11-06T02:13:54.028Z,12.71
2018-11-06T02:14:54.020Z,12.79
2018-11-06T02:15:54.024Z,12.74
2018-11-06T02:16:54.011Z,12.70
2018-11-06T02:17:54.001Z,12.74
2018-11-06T02:18:53.993Z,12.79
2018-11-06T02:19:53.986Z,12.77
2018-11-06T02:20:53.975Z,12.74
2018-11-06T02:21:53.969Z,12.76
2018-11-06T02:22:53.959Z,12.79
2018-11-06T02:23:53.952Z,12.71
2018-11-06T02:24:53.949Z,12.70
2018-11-06T02:25:53.941Z,12.69
2018-11-06T02:26:53.929Z,12.54
2018-11-06T02:27:53.921Z,12.61
2018-11-06T02:28:53.919Z,12.59
2018-11-06T02:29:53.911Z,12.63
2018-11-06T02:30:53.903Z,12.67
2018-11-06T02:31:53.898Z,12.67
2018-11-06T02:32:53.883Z,12.61
2018-11-06T02:33:53.877Z,12.69
2018-11-06T02:34:53.869Z,12.67
2018-11-06T02:35:53.861Z,12.70
2018-11-06T02:36:53.860Z,12.67
2018-11-06T02:37:53.850Z,12.79
2018-11-06T02:38:53.842Z,12.62
2018-11-06T02:39:53.836Z,12.71
2018-11-06T02:40:53.823Z,12.71
2018-11-06T02:41:53.815Z,12.67
2018-11-06T02:42:53.814Z,12.80
2018-11-06T02:43:53.808Z,12.71
2018-11-06T02:44:53.793Z,12.71
2018-11-06T02:45:53.786Z,12.80
2018-11-06T02:46:53.777Z,12.63
2018-11-06T02:47:53.769Z,12.63
2018-11-06T02:48:53.766Z,12.79
2018-11-06T02:49:53.759Z,12.69
2018-11-06T02:50:53.752Z,12.74
2018-11-06T02:51:53.744Z,12.76
2018-11-06T02:52:53.745Z,12.79
2018-11-06T02:53:53.726Z,12.91
2018-11-06T02:54:53.717Z,12.84
2018-11-06T02:55:53.757Z,12.88
2018-11-06T02:56:53.706Z,12.84
2018-11-06T02:57:53.700Z,12.89
2018-11-06T02:58:53.690Z,12.88
2018-11-06T02:59:53.681Z,13.01
2018-11-06T03:00:53.681Z,12.98
2018-11-06T03:01:53.668Z,13.06
2018-11-06T03:02:53.662Z,12.99
2018-11-06T03:03:53.658Z,12.98
2018-11-06T03:04:53.642Z,12.98
2018-11-06T03:05:53.634Z,12.99
2018-11-06T03:06:53.628Z,12.96
2018-11-06T03:07:53.623Z,12.96
2018-11-06T03:08:53.618Z,12.89
2018-11-06T03:09:53.609Z,12.87
2018-11-06T03:10:53.601Z,12.94
2018-11-06T03:11:53.603Z,12.95
2018-11-06T03:12:53.581Z,12.96
2018-11-06T03:13:53.574Z,12.94
2018-11-06T03:14:53.572Z,12.94
2018-11-06T03:15:53.564Z,13.01
2018-11-06T03:16:53.572Z,13.04
2018-11-06T03:17:53.545Z,13.01
2018-11-06T03:18:53.538Z,13.03
2018-11-06T03:19:53.530Z,12.95
2018-11-06T03:20:53.526Z,13.03
2018-11-06T03:21:53.523Z,13.03
2018-11-06T03:22:53.512Z,12.98
2018-11-06T03:23:53.505Z,13.10
2018-11-06T03:24:53.492Z,13.09
2018-11-06T03:25:53.485Z,13.03
2018-11-06T03:26:53.491Z,13.14
2018-11-06T03:27:53.475Z,13.21
2018-11-06T03:28:53.466Z,13.24
2018-11-06T03:29:53.462Z,13.31
2018-11-06T03:30:53.452Z,13.22
2018-11-06T03:31:53.440Z,13.16
2018-11-06T03:32:53.437Z,13.19
2018-11-06T03:33:53.431Z,13.24
2018-11-06T03:34:53.424Z,13.24
2018-11-06T03:35:53.417Z,13.27
2018-11-06T03:36:53.405Z,13.36
2018-11-06T03:37:53.399Z,13.28
2018-11-06T03:38:53.390Z,13.28
2018-11-06T03:39:53.382Z,13.28
2018-11-06T03:40:53.380Z,13.32
2018-11-06T03:41:53.374Z,13.32
2018-11-06T03:42:53.365Z,13.28
2018-11-06T03:43:53.359Z,13.35
2018-11-06T03:44:53.349Z,13.24
2018-11-06T03:45:53.338Z,13.32
2018-11-06T03:46:53.336Z,13.28
2018-11-06T03:47:53.332Z,13.27
2018-11-06T03:48:53.317Z,13.31
2018-11-06T03:49:53.311Z,13.29
2018-11-06T03:50:53.304Z,13.32
2018-11-06T03:51:53.296Z,13.28
2018-11-06T03:52:53.292Z,13.32
2018-11-06T03:53:53.289Z,13.25
2018-11-06T03:54:53.279Z,13.29
2018-11-06T03:55:53.272Z,13.27
2018-11-06T03:56:53.259Z,13.25
2018-11-06T03:57:53.254Z,13.27
2018-11-06T03:58:53.247Z,13.12
2018-11-06T03:59:53.240Z,13.29
2018-11-06T04:00:53.276Z,13.25
2018-11-06T04:01:53.229Z,13.24
2018-11-06T04:02:53.217Z,13.21
2018-11-06T04:03:53.212Z,13.19
2018-11-06T04:04:53.209Z,13.14
2018-11-06T04:05:53.202Z,13.27
2018-11-06T04:06:53.196Z,13.32
2018-11-06T04:07:53.189Z,13.29
2018-11-06T04:08:53.175Z,13.36
2018-11-06T04:09:53.169Z,13.32
2018-11-06T04:10:53.162Z,13.41
2018-11-06T04:11:53.155Z,13.39
2018-11-06T04:12:53.153Z,13.39
2018-11-06T04:13:53.146Z,13.35
2018-11-06T04:14:53.141Z,13.36
2018-11-06T04:15:53.142Z,13.39
2018-11-06T04:16:53.121Z,13.35
2018-11-06T04:17:53.116Z,13.28
2018-11-06T04:18:53.113Z,13.32
2018-11-06T04:19:53.107Z,13.28
2018-11-06T04:20:53.094Z,13.27
2018-11-06T04:21:53.091Z,13.24
2018-11-06T04:22:53.081Z,13.14
2018-11-06T04:23:53.079Z,13.19
2018-11-06T04:24:53.102Z,13.06
2018-11-06T04:25:53.065Z,13.03
2018-11-06T04:26:53.059Z,12.92
2018-11-06T04:27:53.058Z,12.89
2018-11-06T04:28:53.040Z,12.88
2018-11-06T04:29:53.038Z,12.84
2018-11-06T04:30:53.027Z,12.91
2018-11-06T04:31:53.019Z,12.77
2018-11-06T04:32:53.018Z,12.77
2018-11-06T04:33:53.010Z,12.79
2018-11-06T04:34:52.998Z,12.80
2018-11-06T04:35:52.992Z,12.81
2018-11-06T04:36:52.990Z,12.71
2018-11-06T04:37:52.983Z,12.70
2018-11-06T04:38:52.976Z,12.61
2018-11-06T04:39:52.972Z,12.63
2018-11-06T04:40:52.957Z,12.56
2018-11-06T04:41:52.950Z,12.59
2018-11-06T04:42:52.942Z,12.55
2018-11-06T04:43:52.935Z,12.61
2018-11-06T04:44:52.932Z,12.62
2018-11-06T04:45:52.925Z,12.59
2018-11-06T04:46:52.919Z,12.62
2018-11-06T04:47:52.912Z,12.74
2018-11-06T04:48:52.899Z,12.69
2018-11-06T04:49:52.894Z,12.71
2018-11-06T04:50:52.893Z,12.74
2018-11-06T04:51:52.889Z,12.67
2018-11-06T04:52:52.871Z,12.80
2018-11-06T04:53:52.864Z,12.70
2018-11-06T04:54:52.858Z,12.79
2018-11-06T04:55:52.856Z,12.71
2018-11-06T04:56:52.847Z,12.67
2018-11-06T04:57:52.842Z,12.69
2018-11-06T04:58:52.830Z,12.76
2018-11-06T04:59:52.823Z,12.77
2018-11-06T05:00:52.820Z,12.70
2018-11-06T05:01:52.827Z,12.70
2018-11-06T05:02:52.815Z,12.69
2018-11-06T05:03:52.799Z,12.70
2018-11-06T05:04:52.789Z,12.71
2018-11-06T05:05:52.779Z,12.71
2018-11-06T05:06:52.830Z,12.74
2018-11-06T05:07:52.775Z,12.67
2018-11-06T05:08:52.759Z,12.74
2018-11-06T05:09:52.752Z,12.71
2018-11-06T05:10:52.747Z,12.62
2018-11-06T05:11:52.740Z,12.61
2018-11-06T05:12:52.737Z,12.58
2018-11-06T05:13:52.764Z,12.58
2018-11-06T05:14:52.723Z,12.58
2018-11-06T05:15:52.717Z,12.58
2018-11-06T05:16:52.703Z,12.58
2018-11-06T05:17:52.697Z,12.58
2018-11-06T05:18:52.691Z,12.49
2018-11-06T05:19:52.683Z,12.55
2018-11-06T05:20:52.680Z,12.51
2018-11-06T05:21:52.674Z,12.41
2018-11-06T05:22:52.662Z,12.43
2018-11-06T05:23:52.658Z,12.38
2018-11-06T05:24:52.651Z,12.36
2018-11-06T05:25:52.649Z,12.33
2018-11-06T05:26:52.639Z,12.30
2018-11-06T05:27:52.633Z,12.25
2018-11-06T05:28:52.665Z,12.26
2018-11-06T05:29:52.613Z,12.25
2018-11-06T05:30:52.605Z,12.23
2018-11-06T05:31:52.598Z,12.19
2018-11-06T05:32:52.663Z,12.22
2018-11-06T05:33:52.589Z,12.15
2018-11-06T05:34:52.652Z,12.25
2018-11-06T05:35:52.575Z,12.31
2018-11-06T05:36:52.563Z,12.31
2018-11-06T05:37:52.554Z,12.36
2018-11-06T05:38:52.587Z,12.46
2018-11-06T05:39:52.544Z,12.48
2018-11-06T05:40:52.539Z,12.52
2018-11-06T05:41:52.524Z,12.54
2018-11-06T05:42:52.517Z,12.54
2018-11-06T05:43:52.543Z,12.54
2018-11-06T05:44:52.507Z,12.54
2018-11-06T05:45:52.501Z,12.55
2018-11-06T05:46:52.495Z,12.52
2018-11-06T05:47:52.485Z,12.49
2018-11-06T05:48:52.473Z,12.55
2018-11-06T05:49:52.467Z,12.49
2018-11-06T05:50:52.460Z,12.54
2018-11-06T05:51:52.453Z,12.52
2018-11-06T05:52:52.447Z,12.55
2018-11-06T05:53:52.439Z,12.52
2018-11-06T05:54:52.428Z,12.49
2018-11-06T05:55:52.420Z,12.52
2018-11-06T05:56:52.417Z,12.49
2018-11-06T05:57:52.409Z,12.49
2018-11-06T05:58:52.404Z,12.52
2018-11-06T05:59:52.397Z,12.48
2018-11-06T06:00:52.383Z,12.51
2018-11-06T06:01:52.377Z,12.51
2018-11-06T06:02:52.369Z,12.44
2018-11-06T06:03:52.361Z,12.46
2018-11-06T06:04:52.360Z,12.38
2018-11-06T06:05:52.350Z,12.33
2018-11-06T06:06:52.344Z,12.29
2018-11-06T06:07:52.337Z,12.23
2018-11-06T06:08:52.323Z,12.19
2018-11-06T06:09:52.316Z,12.22
2018-11-06T06:10:52.364Z,12.23
2018-11-06T06:11:52.311Z,12.19
2018-11-06T06:12:52.295Z,12.19
2018-11-06T06:13:52.287Z,12.23
2018-11-06T06:14:52.279Z,12.18
2018-11-06T06:15:52.275Z,12.26
2018-11-06T06:16:52.424Z,12.19
2018-11-06T06:17:52.261Z,12.23
2018-11-06T06:18:52.255Z,12.13
2018-11-06T06:19:52.247Z,12.15
2018-11-06T06:20:52.234Z,12.05
2018-11-06T06:21:52.228Z,12.12
2018-11-06T06:22:52.221Z,12.15
2018-11-06T06:23:52.214Z,12.11
2018-11-06T06:24:52.210Z,12.05
2018-11-06T06:25:52.203Z,12.15
2018-11-06T06:26:52.191Z,12.01
2018-11-06T06:27:52.183Z,12.03
2018-11-06T06:28:52.181Z,12.08
2018-11-06T06:29:52.174Z,12.04
2018-11-06T06:30:52.166Z,12.01
2018-11-06T06:31:52.158Z,12.07
2018-11-06T06:32:52.146Z,11.94
2018-11-06T06:33:52.141Z,11.96
2018-11-06T06:34:52.134Z,11.94
2018-11-06T06:35:52.125Z,11.90
2018-11-06T06:36:52.120Z,11.98
2018-11-06T06:37:52.114Z,11.93
2018-11-06T06:38:52.282Z,11.82
2018-11-06T06:39:52.112Z,11.79
2018-11-06T06:40:52.151Z,11.88
2018-11-06T06:41:52.080Z,11.78
2018-11-06T06:42:52.078Z,11.79
2018-11-06T06:43:52.070Z,11.81
2018-11-06T06:44:52.058Z,11.75
2018-11-06T06:45:52.050Z,11.75
2018-11-06T06:46:52.042Z,11.78
2018-11-06T06:47:52.036Z,11.64
2018-11-06T06:48:52.035Z,11.62
2018-11-06T06:49:52.023Z,11.62
2018-11-06T06:50:52.018Z,11.56
2018-11-06T06:51:52.009Z,11.57
2018-11-06T06:52:51.998Z,11.57
2018-11-06T06:53:52.012Z,11.54
2018-11-06T06:54:51.988Z,11.46
2018-11-06T06:55:51.975Z,11.59
2018-11-06T06:56:51.972Z,11.53
2018-11-06T06:57:51.967Z,11.59
2018-11-06T06:58:51.952Z,11.56
2018-11-06T06:59:51.945Z,11.63
2018-11-06T07:00:51.940Z,11.64
2018-11-06T07:01:51.935Z,11.62
2018-11-06T07:02:51.927Z,11.72
2018-11-06T07:03:51.919Z,11.63
2018-11-06T07:04:51.905Z,11.67
2018-11-06T07:05:51.898Z,11.75
2018-11-06T07:06:51.891Z,11.69
2018-11-06T07:07:51.884Z,11.69
2018-11-06T07:08:51.882Z,11.74
2018-11-06T07:09:51.873Z,11.70
2018-11-06T07:10:51.865Z,11.72
2018-11-06T07:11:51.858Z,11.82
2018-11-06T07:12:51.938Z,11.78
2018-11-06T07:13:51.839Z,11.78
2018-11-06T07:14:51.835Z,11.82
2018-11-06T07:15:51.828Z,11.79
2018-11-06T07:16:51.815Z,11.75
2018-11-06T07:17:51.810Z,11.88
2018-11-06T07:18:51.803Z,11.93
2018-11-06T07:19:51.795Z,11.88
2018-11-06T07:20:51.791Z,12.05
2018-11-06T07:21:51.784Z,12.12
2018-11-06T07:22:51.777Z,12.25
2018-11-06T07:23:51.769Z,12.41
2018-11-06T07:24:51.756Z,12.71
2018-11-06T07:25:51.749Z,13.16
2018-11-06T07:26:51.743Z,13.96
2018-11-06T07:27:51.735Z,14.72
2018-11-06T07:28:51.816Z,15.34
2018-11-06T07:29:51.725Z,15.68
2018-11-06T07:30:51.715Z,16.04
2018-11-06T07:31:51.714Z,16.48
2018-11-06T07:32:51.709Z,16.65
2018-11-06T07:33:51.700Z,16.26
2018-11-06T07:34:51.824Z,15.99
2018-11-06T07:35:51.817Z,15.86
2018-11-06T07:36:51.682Z,15.86
2018-11-06T07:37:51.676Z,15.62
2018-11-06T07:38:51.672Z,15.35
2018-11-06T07:39:51.667Z,15.49
2018-11-06T07:40:51.683Z,15.43
2018-11-06T07:41:51.662Z,15.28
2018-11-06T07:42:51.658Z,15.48
2018-11-06T07:43:51.653Z,15.59
2018-11-06T07:44:51.645Z,15.34
2018-11-06T07:45:51.642Z,15.43
2018-11-06T07:46:51.642Z,15.46
2018-11-06T07:47:51.638Z,15.44
2018-11-06T07:48:51.631Z,15.12
2018-11-06T07:49:51.712Z,15.05
2018-11-06T07:50:51.627Z,14.87
2018-11-06T07:51:51.624Z,14.71
2018-11-06T07:52:51.622Z,14.61
2018-11-06T07:53:51.618Z,14.66
2018-11-06T07:54:51.621Z,14.78
2018-11-06T07:55:51.700Z,14.80
2018-11-06T07:56:51.605Z,15.15
2018-11-06T07:57:51.601Z,15.62
2018-11-06T07:58:51.597Z,16.16
2018-11-06T07:59:51.594Z,16.47
2018-11-06T08:00:51.596Z,16.73
2018-11-06T08:01:51.593Z,16.82
2018-11-06T08:02:51.587Z,17.09
2018-11-06T08:03:51.582Z,17.58
2018-11-06T08:04:51.584Z,17.76
2018-11-06T08:05:51.581Z,17.66
2018-11-06T08:06:51.580Z,17.53
2018-11-06T08:07:51.578Z,17.84
2018-11-06T08:08:51.570Z,18.17
2018-11-06T08:09:51.649Z,18.74
2018-11-06T08:10:51.566Z,19.10
2018-11-06T08:11:51.565Z,19.68
2018-11-06T08:12:51.569Z,20.19
2018-11-06T08:13:51.567Z,20.68
2018-11-06T08:14:51.586Z,21.18
2018-11-06T08:15:51.565Z,21.58
2018-11-06T08:16:51.560Z,22.26
2018-11-06T08:17:51.570Z,22.84
2018-11-06T08:18:51.564Z,23.31
2018-11-06T08:19:51.564Z,23.72
2018-11-06T08:20:51.559Z,24.02
2018-11-06T08:21:51.558Z,24.14
2018-11-06T08:22:51.559Z,24.02
2018-11-06T08:23:51.719Z,23.82
2018-11-06T08:24:51.567Z,23.97
2018-11-06T08:25:51.566Z,24.09
2018-11-06T08:26:51.567Z,24.63
2018-11-06T08:27:51.615Z,24.56
2018-11-06T08:28:51.567Z,24.55
2018-11-06T08:29:51.569Z,24.79
2018-11-06T08:30:51.808Z,25.02
2018-11-06T08:31:51.771Z,25.41
2018-11-06T08:32:52.068Z,25.67
2018-11-06T08:33:51.585Z,25.85
2018-11-06T08:34:51.582Z,26.29
2018-11-06T08:35:51.587Z,26.57
2018-11-06T08:36:51.621Z,26.81
2018-11-06T08:37:51.598Z,26.91
2018-11-06T08:38:51.599Z,26.64
2018-11-06T08:39:51.604Z,26.64
2018-11-06T08:40:51.602Z,27.27
2018-11-06T08:41:51.606Z,25.90
2018-11-06T08:42:51.611Z,26.23
2018-11-06T08:43:51.615Z,26.79
2018-11-06T08:44:51.624Z,27.06
2018-11-06T08:45:51.629Z,26.97
2018-11-06T08:46:51.636Z,27.08
2018-11-06T08:47:51.688Z,26.81
2018-11-06T08:48:51.637Z,26.78
2018-11-06T08:49:51.645Z,25.86
2018-11-06T08:50:51.653Z,26.21
2018-11-06T08:51:51.658Z,26.36
2018-11-06T08:52:51.656Z,26.61
2018-11-06T08:53:51.662Z,27.02
2018-11-06T08:54:51.667Z,27.58
2018-11-06T08:55:51.672Z,28.02
2018-11-06T08:56:51.681Z,27.87
2018-11-06T08:57:51.687Z,27.24
2018-11-06T08:58:51.692Z,27.91
2018-11-06T08:59:51.697Z,27.46
2018-11-06T09:00:51.698Z,26.71
2018-11-06T09:01:51.705Z,27.12
2018-11-06T09:02:51.711Z,27.59
2018-11-06T09:03:51.729Z,27.28
2018-11-06T09:04:51.725Z,27.38
2018-11-06T09:05:51.732Z,27.45
2018-11-06T09:06:51.733Z,26.75
2018-11-06T09:07:51.739Z,26.36
2018-11-06T09:08:51.863Z,26.56
2018-11-06T09:09:51.756Z,26.32
2018-11-06T09:10:51.762Z,26.38
2018-11-06T09:11:51.769Z,26.24
2018-11-06T09:12:51.768Z,25.46
2018-11-06T09:13:51.774Z,25.17
2018-11-06T09:14:51.781Z,24.46
2018-11-06T09:15:51.793Z,23.72
2018-11-06T09:16:51.806Z,23.99
2018-11-06T09:17:51.803Z,23.68
2018-11-06T09:18:51.811Z,23.69
2018-11-06T09:19:51.817Z,23.71
2018-11-06T09:20:51.821Z,23.99
2018-11-06T09:21:51.823Z,23.62
2018-11-06T09:22:51.835Z,24.49
2018-11-06T09:23:51.839Z,24.23
2018-11-06T09:24:51.839Z,24.55
2018-11-06T09:25:51.844Z,24.83
2018-11-06T09:26:51.849Z,24.19
2018-11-06T09:27:51.855Z,23.38
2018-11-06T09:28:51.865Z,24.02
2018-11-06T09:29:51.870Z,24.39
2018-11-06T09:30:51.911Z,25.08
2018-11-06T09:31:51.882Z,24.00
2018-11-06T09:32:51.882Z,23.86
2018-11-06T09:33:51.890Z,24.15
2018-11-06T09:34:51.894Z,23.50
2018-11-06T09:35:51.901Z,23.79
2018-11-06T09:36:51.910Z,23.60
2018-11-06T09:37:51.916Z,23.69
2018-11-06T09:38:51.916Z,23.63
2018-11-06T09:39:51.923Z,24.45
2018-11-06T09:40:51.933Z,24.75
2018-11-06T09:41:51.938Z,24.37
2018-11-06T09:42:51.943Z,23.92
2018-11-06T09:43:51.949Z,23.53
2018-11-06T09:44:52.017Z,23.87
2018-11-06T09:45:51.954Z,24.34
2018-11-06T09:46:51.960Z,23.72
2018-11-06T09:47:51.967Z,23.82
2018-11-06T09:48:52.037Z,24.42
2018-11-06T09:49:51.980Z,24.21
2018-11-06T09:50:51.988Z,24.55
2018-11-06T09:51:52.044Z,23.92
2018-11-06T09:52:51.992Z,24.21
2018-11-06T09:53:51.996Z,24.09
2018-11-06T09:54:52.008Z,24.42
2018-11-06T09:55:52.013Z,24.64
2018-11-06T09:56:52.012Z,24.02
2018-11-06T09:57:52.018Z,23.71
2018-11-06T09:58:52.026Z,23.97
2018-11-06T09:59:52.040Z,24.02
2018-11-06T10:00:52.037Z,24.00
2018-11-06T10:01:52.041Z,23.71
2018-11-06T10:02:52.048Z,23.94
2018-11-06T10:03:52.052Z,23.90
2018-11-06T10:04:52.051Z,24.39
2018-11-06T10:05:52.056Z,24.05
2018-11-06T10:06:52.393Z,24.11
2018-11-06T10:07:52.125Z,24.19
2018-11-06T10:08:52.076Z,23.62
2018-11-06T10:09:52.083Z,23.74
2018-11-06T10:10:52.080Z,24.31
2018-11-06T10:11:52.088Z,24.41
2018-11-06T10:12:52.094Z,24.68
2018-11-06T10:13:52.100Z,24.42
2018-11-06T10:14:52.104Z,24.51
2018-11-06T10:15:52.112Z,24.86
2018-11-06T10:16:52.108Z,25.17
2018-11-06T10:17:52.114Z,24.87
2018-11-06T10:18:52.119Z,25.02
2018-11-06T10:19:52.124Z,25.04
2018-11-06T10:20:52.134Z,25.69
2018-11-06T10:21:52.142Z,26.03
2018-11-06T10:22:52.185Z,26.24
2018-11-06T10:23:52.150Z,26.53
2018-11-06T10:24:52.149Z,26.87
2018-11-06T10:25:52.155Z,26.39
2018-11-06T10:26:52.166Z,26.93
2018-11-06T10:27:52.172Z,26.72
2018-11-06T10:28:52.171Z,26.96
2018-11-06T10:29:52.178Z,27.42
2018-11-06T10:30:52.269Z,27.81
2018-11-06T10:31:52.189Z,28.03
2018-11-06T10:32:52.200Z,28.51
2018-11-06T10:33:52.206Z,28.65
2018-11-06T10:34:52.216Z,29.10
2018-11-06T10:35:52.221Z,29.55
2018-11-06T10:36:52.219Z,29.29
2018-11-06T10:37:52.228Z,29.00
2018-11-06T10:38:52.233Z,27.76
2018-11-06T10:39:52.238Z,27.81
2018-11-06T10:40:52.248Z,27.50
2018-11-06T10:41:52.253Z,27.71
2018-11-06T10:42:52.257Z,27.06
2018-11-06T10:43:52.264Z,27.53
2018-11-06T10:44:52.274Z,27.42
2018-11-06T10:45:52.280Z,27.06
2018-11-06T10:46:52.288Z,26.90
2018-11-06T10:47:52.295Z,26.75
2018-11-06T10:48:52.294Z,26.86
2018-11-06T10:49:52.303Z,26.59
2018-11-06T10:50:52.306Z,26.72
2018-11-06T10:51:52.366Z,25.94
2018-11-06T10:52:52.330Z,25.79
2018-11-06T10:53:52.331Z,25.97
2018-11-06T10:54:52.337Z,26.12
2018-11-06T10:55:52.342Z,25.85
2018-11-06T10:56:52.343Z,26.32
2018-11-06T10:57:52.351Z,25.42
2018-11-06T10:58:52.360Z,24.90
2018-11-06T10:59:52.366Z,25.48
2018-11-06T11:00:52.366Z,25.82
2018-11-06T11:01:52.375Z,26.06
2018-11-06T11:02:52.378Z,26.57
2018-11-06T11:03:52.392Z,26.72
2018-11-06T11:04:52.394Z,27.01
2018-11-06T11:05:52.399Z,26.17
2018-11-06T11:06:52.407Z,25.71
2018-11-06T11:07:52.411Z,25.72
2018-11-06T11:08:52.410Z,24.79
2018-11-06T11:09:52.417Z,25.05
2018-11-06T11:10:52.422Z,24.93
2018-11-06T11:11:52.428Z,23.93
2018-11-06T11:12:52.436Z,23.44
2018-11-06T11:13:52.440Z,23.57
2018-11-06T11:14:52.444Z,23.42
2018-11-06T11:15:52.445Z,23.31
2018-11-06T11:16:52.455Z,23.14
2018-11-06T11:17:52.458Z,23.19
2018-11-06T11:18:52.464Z,22.75
2018-11-06T11:19:52.466Z,22.67
2018-11-06T11:20:52.467Z,22.54
2018-11-06T11:21:52.469Z,22.35
2018-11-06T11:22:52.472Z,22.21
2018-11-06T11:23:52.475Z,22.20
2018-11-06T11:24:52.482Z,21.94
2018-11-06T11:25:52.487Z,21.91
2018-11-06T11:26:52.489Z,21.90
2018-11-06T11:27:52.502Z,21.68
2018-11-06T11:28:52.489Z,21.53
2018-11-06T11:29:52.492Z,21.31
2018-11-06T11:30:52.499Z,21.11
2018-11-06T11:31:52.505Z,20.85
2018-11-06T11:32:52.496Z,20.88
2018-11-06T11:33:52.558Z,20.83
2018-11-06T11:34:52.500Z,20.94
2018-11-06T11:35:52.501Z,21.03
2018-11-06T11:36:52.506Z,21.06
2018-11-06T11:37:52.568Z,21.27
2018-11-06T11:38:52.508Z,21.46
2018-11-06T11:39:52.509Z,21.49
2018-11-06T11:40:52.505Z,21.73
2018-11-06T11:41:52.507Z,21.61
2018-11-06T11:42:52.508Z,21.71
2018-11-06T11:43:52.509Z,21.73
2018-11-06T11:44:52.515Z,21.79
2018-11-06T11:45:52.606Z,22.01
2018-11-06T11:46:52.510Z,22.15
2018-11-06T11:47:52.511Z,22.26
2018-11-06T11:48:52.515Z,22.27
2018-11-06T11:49:52.515Z,22.39
2018-11-06T11:50:52.519Z,22.19
2018-11-06T11:51:52.516Z,22.11
2018-11-06T11:52:52.512Z,21.96
2018-11-06T11:53:52.512Z,22.06
2018-11-06T11:54:52.512Z,22.17
2018-11-06T11:55:52.515Z,22.14
2018-11-06T11:56:52.516Z,22.23
2018-11-06T11:57:52.520Z,22.39
2018-11-06T11:58:52.519Z,22.54
2018-11-06T11:59:52.545Z,22.61
2018-11-06T12:00:52.514Z,22.49
2018-11-06T12:01:52.514Z,22.30
2018-11-06T12:02:52.521Z,21.91
2018-11-06T12:03:52.521Z,21.67
2018-11-06T12:04:52.515Z,21.45
2018-11-06T12:05:52.515Z,21.45
2018-11-06T12:06:52.516Z,21.22
2018-11-06T12:07:52.517Z,21.00
2018-11-06T12:08:52.520Z,20.93
2018-11-06T12:09:52.519Z,20.85
2018-11-06T12:10:52.524Z,20.87
2018-11-06T12:11:52.521Z,20.91
2018-11-06T12:12:52.517Z,21.00
2018-11-06T12:13:52.516Z,21.05
2018-11-06T12:14:52.516Z,21.19
2018-11-06T12:15:52.515Z,21.06
2018-11-06T12:16:52.518Z,21.15
2018-11-06T12:17:52.519Z,21.28
2018-11-06T12:18:52.514Z,21.28
2018-11-06T12:19:52.515Z,21.36
2018-11-06T12:20:52.516Z,21.52
2018-11-06T12:21:52.519Z,21.58
2018-11-06T12:22:52.515Z,21.68
2018-11-06T12:23:52.542Z,21.70
2018-11-06T12:24:52.705Z,21.63
2018-11-06T12:25:52.719Z,21.64
2018-11-06T12:26:52.512Z,21.59
2018-11-06T12:27:52.508Z,21.56
2018-11-06T12:28:52.511Z,21.63
2018-11-06T12:29:52.517Z,21.68
2018-11-06T12:30:52.511Z,21.74
2018-11-06T12:31:52.511Z,21.67
2018-11-06T12:32:52.505Z,21.89
2018-11-06T12:33:52.504Z,21.85
2018-11-06T12:34:52.508Z,21.96
2018-11-06T12:35:52.507Z,21.98
2018-11-06T12:36:52.535Z,21.96
2018-11-06T12:37:52.502Z,21.89
2018-11-06T12:38:52.505Z,21.96
2018-11-06T12:39:52.501Z,21.99
2018-11-06T12:40:52.505Z,21.91
2018-11-06T12:41:52.507Z,21.96
2018-11-06T12:42:52.520Z,21.96
2018-11-06T12:43:52.504Z,21.94
2018-11-06T12:44:52.497Z,21.83
2018-11-06T12:45:52.499Z,21.74
2018-11-06T12:46:52.499Z,21.63
2018-11-06T12:47:52.496Z,21.66
2018-11-06T12:48:52.499Z,21.64
2018-11-06T12:49:52.497Z,21.68
2018-11-06T12:50:52.493Z,21.71
2018-11-06T12:51:52.495Z,21.82
2018-11-06T12:52:52.496Z,21.89